^^
Datos históricos de la estación: Murcia-Puente Tocinos
Diario Informe para Noviembre 17, 2019 Unidades:  Métrico    Ingés   Ambas
Diario Semanal Mensual Anual
  Máxima: Mínima: Promedio:
Temperatura: 17.8 °C 6.6 °C 11.8 °C
Punto de rocio: 6.2 °C -1.5 °C 1.4 °C
Humedad: 69.4% 34% 50%
Velocidad viento: 13km/h 0km/h 6km/h
Racha viento: 22.5km/h - -
Viento- - SO
Presión: 1015.6 hPa 1008.3 hPa -
Precipitación: 0.0 mm    
 
 
Tabla de datos para Noviembre 17, 2019
Hora Temperatura Punto de rocio Presión Viento Velocidad viento Racha viento Humedad Intensidad lluvia(por hora) Nubes
00:04 11.6 °C -1.4 °C 1015.0 hPa OSO 13 km/h 20.9 km/h 40.4% 0.0 mm
00:09 11.5 °C -1.3 °C 1015.0 hPa OSO 13 km/h 20.9 km/h 41% 0.0 mm
00:14 11.4 °C -1.4 °C 1015.0 hPa OSO 12.5 km/h 19.3 km/h 41% 0.0 mm
00:19 11.3 °C -1.2 °C 1015.0 hPa Oeste 12.2 km/h 16.7 km/h 41.9% 0.0 mm
00:24 11.1 °C -1.3 °C 1015.0 hPa Oeste 11 km/h 16.1 km/h 42% 0.0 mm
00:29 11 °C -1.3 °C 1014.9 hPa SO 10.3 km/h 14.5 km/h 42.3% 0.0 mm
00:34 10.9 °C -1.4 °C 1014.9 hPa SSO 8.5 km/h 12.9 km/h 42.4% 0.0 mm
00:39 10.9 °C -1.5 °C 1015.0 hPa SSO 7.6 km/h 9.7 km/h 42% 0.0 mm
00:44 11 °C -1.3 °C 1015.0 hPa SSE 6.4 km/h 9.7 km/h 42.7% 0.0 mm
00:49 10.8 °C -1.2 °C 1015.0 hPa SE 5.8 km/h 9.7 km/h 43.5% 0.0 mm
00:54 10.4 °C -1.1 °C 1015.0 hPa SE 5.1 km/h 8 km/h 44.6% 0.0 mm
00:59 10.2 °C -1.1 °C 1015.0 hPa Sur 4.7 km/h 11.9 km/h 45.2% 0.0 mm
01:04 10.2 °C -1.2 °C 1015.0 hPa SO 5.4 km/h 13.7 km/h 45% 0.0 mm
01:09 10.3 °C -1.2 °C 1015.1 hPa SO 5.8 km/h 16.7 km/h 44.8% 0.0 mm
01:14 10.4 °C -1.3 °C 1015.1 hPa SO 8.2 km/h 16.1 km/h 44% 0.0 mm
01:19 10.4 °C -1.3 °C 1015.1 hPa OSO 9.5 km/h 14.8 km/h 44% 0.0 mm
01:24 10.4 °C -1.3 °C 1015.1 hPa OSO 9.8 km/h 14.8 km/h 44.1% 0.0 mm
01:29 10.3 °C -1.1 °C 1015.1 hPa SO 10 km/h 14.5 km/h 45% 0.0 mm
01:34 10.2 °C -1.2 °C 1015.1 hPa SO 8.4 km/h 13 km/h 45% 0.0 mm
01:39 10.2 °C -1.2 °C 1015.1 hPa SO 7.6 km/h 12.9 km/h 45% 0.0 mm
01:44 10.2 °C -1.1 °C 1015.0 hPa Sur 6.8 km/h 11.1 km/h 45.6% 0.0 mm
01:49 9.8 °C -1.1 °C 1015.0 hPa Sur 6.5 km/h 11.3 km/h 46.6% 0.0 mm
01:54 9.4 °C -1.1 °C 1015.2 hPa Sur 6.5 km/h 11.1 km/h 47.8% 0.0 mm
01:59 9.2 °C -1 °C 1015.2 hPa SSO 6.5 km/h 11.3 km/h 48.9% 0.0 mm
02:04 9.1 °C -1 °C 1015.2 hPa SO 5.5 km/h 9.7 km/h 49.1% 0.0 mm
02:09 9.1 °C -1 °C 1015.2 hPa OSO 5 km/h 8.4 km/h 49.1% 0.0 mm
02:14 9.2 °C -1 °C 1015.2 hPa OSO 4.8 km/h 9.3 km/h 49% 0.0 mm
02:19 9.3 °C -0.9 °C 1015.2 hPa Oeste 4.7 km/h 11.1 km/h 48.9% 0.0 mm
02:24 9.3 °C -1 °C 1015.2 hPa OSO 5.8 km/h 11.3 km/h 48.7% 0.0 mm
02:29 9.3 °C -1.1 °C 1015.1 hPa SO 6.5 km/h 11.3 km/h 48.4% 0.0 mm
02:34 9.2 °C -1.1 °C 1015.1 hPa SO 6.5 km/h 12.2 km/h 48.8% 0.0 mm
02:39 9.2 °C -1 °C 1015.1 hPa Sur 6.5 km/h 12.9 km/h 49.3% 0.0 mm
02:44 8.8 °C -0.9 °C 1015.0 hPa SSE 6.8 km/h 11.3 km/h 50.5% 0.0 mm
02:49 8.5 °C -0.9 °C 1015.0 hPa Sur 6.9 km/h 13 km/h 51.5% 0.0 mm
02:54 8.3 °C -1 °C 1015.1 hPa Sur 6.6 km/h 12.9 km/h 52% 0.0 mm
02:59 8.3 °C -0.9 °C 1015.1 hPa Sur 6.5 km/h 8 km/h 52.2% 0.0 mm
03:04 8.3 °C -1 °C 1015.1 hPa Sur 5.5 km/h 9.3 km/h 52% 0.0 mm
03:09 8.4 °C -0.9 °C 1015.1 hPa OSO 5 km/h 9.7 km/h 52% 0.0 mm
03:14 8.4 °C -0.9 °C 1015.1 hPa ONO 4.3 km/h 6.4 km/h 51.9% 0.0 mm
03:19 8.5 °C -0.9 °C 1015.1 hPa OSO 3.9 km/h 6.4 km/h 51.7% 0.0 mm
03:24 8.6 °C -0.7 °C 1015.1 hPa OSO 3.9 km/h 6.4 km/h 52% 0.0 mm
03:29 8.6 °C -0.7 °C 1015.1 hPa OSO 3.9 km/h 7.4 km/h 52% 0.0 mm
03:34 8.7 °C -0.6 °C 1015.1 hPa OSO 3.9 km/h 8 km/h 52.1% 0.0 mm
03:39 8.6 °C -0.6 °C 1015.1 hPa OSO 3.9 km/h 8 km/h 52.3% 0.0 mm
03:44 8.5 °C -0.8 °C 1015.1 hPa OSO 4.4 km/h 8 km/h 52% 0.0 mm
03:49 8.4 °C -0.9 °C 1015.1 hPa OSO 4.7 km/h 8 km/h 52% 0.0 mm
03:54 8.5 °C -0.9 °C 1015.1 hPa OSO 4.7 km/h 8 km/h 51.9% 0.0 mm
03:59 8.6 °C -0.9 °C 1014.8 hPa SO 4.7 km/h 8 km/h 51.3% 0.0 mm
04:04 8.8 °C -1 °C 1014.8 hPa Sur 4.1 km/h 8 km/h 50.2% 0.0 mm
04:09 9 °C -1.1 °C 1014.8 hPa Sur 3.9 km/h 8 km/h 49.3% 0.0 mm
04:14 9.2 °C -1 °C 1014.7 hPa OSO 3.4 km/h 8 km/h 48.9% 0.0 mm
04:19 9.4 °C -0.8 °C 1014.7 hPa SSO 3.2 km/h 8.4 km/h 48.9% 0.0 mm
04:24 9.3 °C -0.8 °C 1014.7 hPa SSO 4.4 km/h 8.4 km/h 49.2% 0.0 mm
04:29 9.2 °C -0.7 °C 1014.6 hPa SSO 5 km/h 8 km/h 50% 0.0 mm
04:34 8.9 °C -0.7 °C 1014.6 hPa SO 4.3 km/h 8 km/h 50.9% 0.0 mm
04:39 8.8 °C -0.7 °C 1014.9 hPa Oeste 3.9 km/h 8 km/h 51.3% 0.0 mm
04:44 8.6 °C -0.6 °C 1014.9 hPa Oeste 3.2 km/h 4.8 km/h 52.7% 0.0 mm
04:49 8.3 °C -0.5 °C 1014.9 hPa Oeste 2.9 km/h 3.9 km/h 53.9% 0.0 mm
04:54 8.1 °C -0.5 °C 1014.9 hPa Oeste 2.5 km/h 4.7 km/h 54.6% 0.0 mm
04:59 7.8 °C -0.6 °C 1014.8 hPa Oeste 2.2 km/h 7.4 km/h 55% 0.0 mm
05:04 7.7 °C -0.6 °C 1014.8 hPa Oeste 2.9 km/h 8 km/h 55.9% 0.0 mm
05:09 7.5 °C -0.6 °C 1014.8 hPa Oeste 3.2 km/h 6.4 km/h 56.5% 0.0 mm
05:14 7.4 °C -0.6 °C 1014.7 hPa Oeste 3.2 km/h 8.4 km/h 57% 0.0 mm
05:19 7.3 °C -0.6 °C 1014.7 hPa Oeste 3.2 km/h 8.4 km/h 57% 0.0 mm
05:24 7.3 °C -0.7 °C 1014.7 hPa Oeste 4.4 km/h 11.1 km/h 57% 0.0 mm
05:29 7.3 °C -0.7 °C 1014.7 hPa OSO 5 km/h 11.3 km/h 57% 0.0 mm
05:34 7.3 °C -0.7 °C 1014.7 hPa OSO 6.3 km/h 11.3 km/h 57% 0.0 mm
05:39 7.2 °C -0.6 °C 1014.7 hPa OSO 6.9 km/h 10 km/h 57.6% 0.0 mm
05:44 7.2 °C -0.5 °C 1014.7 hPa OSO 6.2 km/h 9.7 km/h 58% 0.0 mm
05:49 7.2 °C -0.5 °C 1014.7 hPa OSO 5.8 km/h 9.7 km/h 57.9% 0.0 mm
05:54 7.3 °C -0.6 °C 1014.8 hPa SO 5 km/h 8 km/h 57.3% 0.0 mm
05:59 7.3 °C -0.6 °C 1014.8 hPa Sur 4.7 km/h 8 km/h 57% 0.0 mm
06:04 7.4 °C -0.4 °C 1014.8 hPa Sur 3.6 km/h 6.4 km/h 57.8% 0.0 mm
06:09 7.4 °C -0.3 °C 1014.9 hPa Sur 3.2 km/h 7.4 km/h 58% 0.0 mm
06:14 7.4 °C -0.3 °C 1014.9 hPa Sur 3 km/h 8 km/h 58% 0.0 mm
06:19 7.3 °C -0.3 °C 1014.9 hPa Sur 2.9 km/h 7.4 km/h 58.4% 0.0 mm
06:24 7.3 °C -0.2 °C 1015.1 hPa Sur 3.5 km/h 8 km/h 59% 0.0 mm
06:29 7.2 °C -0.2 °C 1015.1 hPa SSO 3.9 km/h 8.4 km/h 59% 0.0 mm
06:34 7.2 °C -0.3 °C 1015.1 hPa SO 3.4 km/h 8 km/h 59.1% 0.0 mm
06:39 7.2 °C -0.2 °C 1015.1 hPa OSO 3.2 km/h 6.9 km/h 59.6% 0.0 mm
06:44 7.1 °C -0.3 °C 1015.0 hPa SSE 3.6 km/h 9.3 km/h 59.4% 0.0 mm
06:49 6.9 °C -0.6 °C 1015.0 hPa SSE 3.9 km/h 9.7 km/h 59% 0.0 mm
06:54 6.7 °C -0.8 °C 1015.0 hPa Sur 5.1 km/h 11.1 km/h 59% 0.0 mm
06:59 6.6 °C -0.7 °C 1014.9 hPa Sur 5.8 km/h 11.3 km/h 59.5% 0.0 mm
07:04 6.6 °C -0.6 °C 1014.9 hPa Sur 6.6 km/h 12.2 km/h 59.9% 0.0 mm
07:09 6.7 °C -0.8 °C 1015.0 hPa Sur 6.9 km/h 15.6 km/h 59% 0.0 mm
07:14 6.8 °C -0.9 °C 1015.0 hPa Sur 8.6 km/h 16.1 km/h 58.2% 0.0 mm
07:19 6.9 °C -0.9 °C 1015.0 hPa Sur 9.5 km/h 14.5 km/h 57.4% 0.0 mm
07:24 7.1 °C -0.8 °C 1015.1 hPa Sur 8.2 km/h 11.1 km/h 57% 0.0 mm
07:29 7.2 °C -0.8 °C 1015.1 hPa SSO 7.6 km/h 11.3 km/h 57% 0.0 mm
07:34 7.2 °C -0.8 °C 1015.1 hPa SSO 7.1 km/h 9.7 km/h 57% 0.0 mm
07:39 7.3 °C -0.9 °C 1015.2 hPa SSO 6.9 km/h 11.1 km/h 56.3% 0.0 mm
07:44 7.5 °C -0.9 °C 1015.2 hPa SSO 7.4 km/h 11.3 km/h 55.1% 0.0 mm
07:49 7.7 °C -0.8 °C 1015.2 hPa SSO 7.6 km/h 9.7 km/h 55% 0.0 mm
07:54 7.7 °C -0.8 °C 1015.2 hPa SSO 6.4 km/h 9.7 km/h 55% 0.0 mm
07:59 7.7 °C -0.7 °C 1015.1 hPa SSO 5.8 km/h 8 km/h 55% 0.0 mm
08:04 7.7 °C -0.8 °C 1015.1 hPa SSO 4.5 km/h 8 km/h 55% 0.0 mm
08:09 7.7 °C -0.8 °C 1015.3 hPa SSO 3.9 km/h 8 km/h 55% 0.0 mm
08:14 7.7 °C -0.7 °C 1015.3 hPa SSO 2.8 km/h 3.2 km/h 55.7% 0.0 mm
08:19 7.6 °C -0.4 °C 1015.3 hPa SSO 2.2 km/h   56.9% 0.0 mm
08:24 7.6 °C -0.5 °C 1015.3 hPa SSO 0.8 km/h 9.5 km/h 56.5% 0.0 mm
08:29 7.7 °C -0.6 °C 1015.3 hPa Calm   9.7 km/h 55.9% 0.0 mm
08:34 7.7 °C -0.7 °C 1015.3 hPa OSO 4.2 km/h 9.7 km/h 55.5% 0.0 mm
08:39 7.7 °C -0.6 °C 1015.4 hPa OSO 6.5 km/h 9.7 km/h 56% 0.0 mm
08:44 7.7 °C -0.6 °C 1015.4 hPa OSO 5.3 km/h 8.4 km/h 56% 0.0 mm
08:49 7.7 °C -0.5 °C 1015.4 hPa OSO 4.7 km/h 9.5 km/h 56.2% 0.0 mm
08:54 7.7 °C -0.4 °C 1015.5 hPa SO 4.9 km/h 10 km/h 56.3% 0.0 mm
08:59 7.9 °C -0.4 °C 1015.5 hPa Oeste 5 km/h 9.7 km/h 56% 0.0 mm
09:04 7.9 °C -0.2 °C 1015.5 hPa Oeste 5 km/h 9.7 km/h 56.5% 0.0 mm
09:09 7.9 °C -0.1 °C 1015.6 hPa Oeste 5 km/h 9.7 km/h 57% 0.0 mm
09:14 7.9 °C -0.1 °C 1015.6 hPa OSO 5.5 km/h 9.7 km/h 57% 0.0 mm
09:19 8 °C 0 °C 1015.6 hPa OSO 5.8 km/h 9.7 km/h 57% 0.0 mm
09:24 8.2 °C 0.1 °C 1015.6 hPa SSO 5.1 km/h 9.7 km/h 56.9% 0.0 mm
09:29 8.5 °C 0 °C 1015.6 hPa SSO 4.7 km/h 14.8 km/h 55.2% 0.0 mm
09:34 8.8 °C -0.2 °C 1015.6 hPa SSO 5.8 km/h 14.8 km/h 53.2% 0.0 mm
09:39 8.9 °C -0.1 °C 1015.6 hPa SSO 6.5 km/h 14.5 km/h 53% 0.0 mm
09:44 9.2 °C 0 °C 1015.5 hPa SSO 7.2 km/h 13 km/h 53% 0.0 mm
09:49 9.3 °C 0.2 °C 1015.5 hPa SSO 7.6 km/h 10 km/h 53% 0.0 mm
09:54 9.4 °C 0.3 °C 1015.6 hPa OSO 5.9 km/h 9.7 km/h 53% 0.0 mm
09:59 9.6 °C 0.5 °C 1015.6 hPa Oeste 5 km/h 9.5 km/h 53% 0.0 mm
10:04 9.6 °C 0.5 °C 1015.6 hPa Oeste 4.8 km/h 9.7 km/h 53% 0.0 mm
10:09 9.7 °C 0.6 °C 1015.6 hPa OSO 4.7 km/h 10 km/h 53.3% 0.0 mm
10:14 9.8 °C 0.6 °C 1015.5 hPa OSO 5.8 km/h 9.7 km/h 53% 0.0 mm
10:19 9.9 °C 0.6 °C 1015.5 hPa SO 6.5 km/h 11.1 km/h 52.3% 0.0 mm
10:24 10.2 °C 0.8 °C 1015.6 hPa SO 6.5 km/h 11.3 km/h 52% 0.0 mm
10:29 10.5 °C 0.8 °C 1015.6 hPa SSO 6.5 km/h 11.3 km/h 50.8% 0.0 mm
10:34 10.9 °C 0.7 °C 1015.6 hPa Sur 5.3 km/h 10 km/h 49.4% 0.0 mm
10:39 11.1 °C 0.8 °C 1015.6 hPa SO 4.7 km/h 10 km/h 49% 0.0 mm
10:44 11.3 °C 0.6 °C 1015.5 hPa SO 5.4 km/h 11.9 km/h 47.8% 0.0 mm
10:49 11.4 °C 0.7 °C 1015.5 hPa SO 5.8 km/h 11.3 km/h 47.9% 0.0 mm
10:54 11.7 °C 0.8 °C 1015.5 hPa SSO 5.8 km/h 10 km/h 47.3% 0.0 mm
10:59 11.8 °C 0.6 °C 1015.4 hPa SSO 5.8 km/h 16.1 km/h 46.1% 0.0 mm
11:04 11.9 °C 0.7 °C 1015.4 hPa SO 7.5 km/h 16.7 km/h 46% 0.0 mm
11:09 12.1 °C 0.7 °C 1015.4 hPa SSO 8.4 km/h 14.8 km/h 45.6% 0.0 mm
11:14 12.2 °C 0.9 °C 1015.3 hPa SSO 8.6 km/h 14.5 km/h 46% 0.0 mm
11:19 12.3 °C 1 °C 1015.3 hPa SO 8.7 km/h 12.9 km/h 45.9% 0.0 mm
11:24 12.6 °C 1 °C 1015.3 hPa SSO 7.5 km/h 11.3 km/h 45.3% 0.0 mm
11:29 12.8 °C 1.1 °C 1015.3 hPa SSO 6.9 km/h 11.3 km/h 44.7% 0.0 mm
11:34 13.1 °C 0.9 °C 1015.3 hPa SO 6.6 km/h 16.1 km/h 43.5% 0.0 mm
11:39 13.2 °C 0.6 °C 1015.3 hPa SSO 6.5 km/h 16.7 km/h 42% 0.0 mm
11:44 13.3 °C 0.6 °C 1015.2 hPa Sur 6.8 km/h 16.1 km/h 41.8% 0.0 mm
11:49 13.4 °C 0.5 °C 1015.2 hPa SSO 6.9 km/h 14.5 km/h 41.3% 0.0 mm
11:54 13.4 °C 0.5 °C 1015.2 hPa Sur 7.9 km/h 12.9 km/h 41.3% 0.0 mm
11:59 13.6 °C 0.5 °C 1014.9 hPa SSO 8.4 km/h 14.8 km/h 40.8% 0.0 mm
12:04 13.7 °C 0.5 °C 1014.9 hPa SSO 8.6 km/h 17.2 km/h 40.4% 0.0 mm
12:09 13.7 °C 0.3 °C 1014.9 hPa Sur 8.7 km/h 18 km/h 40% 0.0 mm
12:14 13.7 °C 0.4 °C 1014.6 hPa Sur 9.8 km/h 17.7 km/h 40% 0.0 mm
12:19 13.8 °C 0.2 °C 1014.6 hPa SSO 10.3 km/h 16.1 km/h 39.3% 0.0 mm
12:24 13.9 °C 0.2 °C 1014.6 hPa SSO 10.1 km/h 14.8 km/h 39% 0.0 mm
12:29 14.2 °C 0.3 °C 1014.3 hPa Sur 10 km/h 14.5 km/h 38.6% 0.0 mm
12:34 14.5 °C 0.3 °C 1014.3 hPa Sur 8.4 km/h 15.6 km/h 37.7% 0.0 mm
12:39 14.8 °C 0.2 °C 1014.3 hPa SSO 7.6 km/h 19 km/h 37% 0.0 mm
12:44 14.8 °C 0.2 °C 1014.0 hPa Sur 8.3 km/h 19.3 km/h 37% 0.0 mm
12:49 14.9 °C 0.4 °C 1014.0 hPa SSO 8.7 km/h 14.8 km/h 37.1% 0.0 mm
12:54 15 °C 0.5 °C 1014.0 hPa Sur 8.5 km/h 14.8 km/h 37.2% 0.0 mm
12:59 15.2 °C 0.3 °C 1013.6 hPa SSO 8.4 km/h 20.4 km/h 36.4% 0.0 mm
13:04 15.2 °C 0.7 °C 1013.6 hPa SSO 9.5 km/h 20.9 km/h 37.4% 0.0 mm
13:09 15.4 °C 0.2 °C 1013.6 hPa SSO 10 km/h 22.2 km/h 35.6% 0.0 mm
13:14 15.5 °C 0 °C 1013.2 hPa SO 9.1 km/h 22.5 km/h 34.9% 0.0 mm
13:19 15.5 °C 0 °C 1013.2 hPa OSO 8.7 km/h 16.1 km/h 34.7% 0.0 mm
13:24 15.6 °C -0.3 °C 1013.2 hPa OSO 9.6 km/h 16.7 km/h 34% 0.0 mm
13:29 15.7 °C -0.2 °C 1013.0 hPa OSO 10 km/h 14.5 km/h 34% 0.0 mm
13:34 15.8 °C 0 °C 1013.0 hPa OSO 7.3 km/h 13 km/h 34.1% 0.0 mm
13:39 16 °C 0.4 °C 1013.0 hPa SO 5.8 km/h 20.4 km/h 34.7% 0.0 mm
13:44 16.2 °C 0.7 °C 1012.8 hPa SSO 8.5 km/h 22.5 km/h 35% 0.0 mm
13:49 16.1 °C 0.7 °C 1012.8 hPa SO 10 km/h 22.5 km/h 35.3% 0.0 mm
13:54 16.1 °C 0.8 °C 1012.8 hPa SSO 11.4 km/h 21.7 km/h 35.4% 0.0 mm
13:59 16.2 °C 0.7 °C 1012.6 hPa Sur 12.2 km/h 22.5 km/h 35% 0.0 mm
14:04 16.3 °C 0.8 °C 1012.6 hPa SSO 12.2 km/h 19.3 km/h 35% 0.0 mm
14:09 16.4 °C 0.8 °C 1012.6 hPa SSO 12.2 km/h 20.9 km/h 34.9% 0.0 mm
14:14 16.3 °C 0.7 °C 1012.2 hPa SSO 11.5 km/h 20.9 km/h 34.7% 0.0 mm
14:19 16.3 °C 0.8 °C 1012.2 hPa SSO 11.1 km/h 22.2 km/h 35% 0.0 mm
14:24 16.3 °C 0.9 °C 1012.2 hPa SSO 11.6 km/h 22.5 km/h 35.3% 0.0 mm
14:29 16.3 °C 1.1 °C 1012.0 hPa SSO 11.9 km/h 20.9 km/h 35.7% 0.0 mm
14:34 16.3 °C 0.9 °C 1012.0 hPa SSO 12.1 km/h 20.9 km/h 35.2% 0.0 mm
14:39 16.4 °C 1 °C 1012.0 hPa SSO 12.2 km/h 20.4 km/h 35.1% 0.0 mm
14:44 16.7 °C 1.2 °C 1011.7 hPa SSO 11 km/h 20.9 km/h 35.3% 0.0 mm
14:49 16.8 °C 1.2 °C 1011.7 hPa SSO 10.3 km/h 22 km/h 35% 0.0 mm
14:54 16.9 °C 1.3 °C 1011.7 hPa SO 11.5 km/h 22.5 km/h 35% 0.0 mm
14:59 17.1 °C 1.5 °C 1011.6 hPa SO 12.2 km/h 22.5 km/h 35% 0.0 mm
15:04 17.3 °C 1.6 °C 1011.6 hPa SO 9.8 km/h 14.5 km/h 34.8% 0.0 mm
15:09 17.4 °C 1.8 °C 1011.6 hPa OSO 8.7 km/h 13 km/h 35% 0.0 mm
15:14 17.6 °C 1.6 °C 1011.5 hPa OSO 7.5 km/h 11.9 km/h 34.1% 0.0 mm
15:19 17.7 °C 1.6 °C 1011.5 hPa Oeste 6.9 km/h 13 km/h 34% 0.0 mm
15:24 17.8 °C 1.9 °C 1011.5 hPa OSO 7.4 km/h 13 km/h 34.6% 0.0 mm
15:29 17.8 °C 2.1 °C 1011.3 hPa SO 7.6 km/h 12.9 km/h 34.8% 0.0 mm
15:34 17.8 °C 2 °C 1011.3 hPa OSO 6.8 km/h 13.7 km/h 34.8% 0.0 mm
15:39 17.7 °C 2 °C 1011.3 hPa OSO 6.5 km/h 15.6 km/h 35% 0.0 mm
15:44 17.5 °C 1.9 °C 1011.3 hPa Oeste 7.2 km/h 16.1 km/h 35% 0.0 mm
15:49 17.4 °C 1.8 °C 1011.3 hPa Oeste 7.6 km/h 11.3 km/h 35.1% 0.0 mm
15:54 17.4 °C 2.2 °C 1011.3 hPa ONO 6.4 km/h 9.7 km/h 36% 0.0 mm
15:59 17.4 °C 2.4 °C 1011.1 hPa SE 5.8 km/h 8 km/h 36.6% 0.0 mm
16:04 17.5 °C 2.6 °C 1011.1 hPa SO 4 km/h 10 km/h 37% 0.0 mm
16:09 17.6 °C 2.7 °C 1011.1 hPa OSO 3.2 km/h 9.7 km/h 37% 0.0 mm
16:14 17.6 °C 2.7 °C 1011.0 hPa OSO 4.4 km/h 11.1 km/h 36.9% 0.0 mm
16:19 17.6 °C 2.7 °C 1011.0 hPa OSO 5 km/h 11.3 km/h 37% 0.0 mm
16:24 17.4 °C 2.6 °C 1011.0 hPa SO 5.5 km/h 15.6 km/h 37% 0.0 mm
16:29 17.3 °C 2.5 °C 1011.0 hPa SO 5.8 km/h 16.7 km/h 37% 0.0 mm
16:34 17.3 °C 2.4 °C 1011.0 hPa SO 8.2 km/h 16.1 km/h 37% 0.0 mm
16:39 17.2 °C 2.4 °C 1011.0 hPa SO 9.5 km/h 16.7 km/h 37.1% 0.0 mm
16:44 17.1 °C 2.7 °C 1010.9 hPa Oeste 8.8 km/h 16.1 km/h 38% 0.0 mm
16:49 17 °C 2.6 °C 1010.9 hPa OSO 8.4 km/h 11.3 km/h 38% 0.0 mm
16:54 16.9 °C 2.6 °C 1010.9 hPa Oeste 7.1 km/h 9.7 km/h 38.3% 0.0 mm
16:59 16.7 °C 2.7 °C 1010.7 hPa Oeste 6.5 km/h 11.1 km/h 39% 0.0 mm
17:04 16.7 °C 2.7 °C 1010.7 hPa Oeste 6 km/h 11.3 km/h 39% 0.0 mm
17:09 16.7 °C 2.7 °C 1010.7 hPa ONO 5.8 km/h 11.9 km/h 39% 0.0 mm
17:14 16.8 °C 2.7 °C 1010.6 hPa ONO 6.5 km/h 11.3 km/h 39% 0.0 mm
17:19 16.8 °C 2.8 °C 1010.6 hPa ONO 6.9 km/h 13 km/h 39% 0.0 mm
17:24 16.8 °C 2.8 °C 1010.6 hPa ONO 6.6 km/h 12.9 km/h 39% 0.0 mm
17:29 16.7 °C 2.7 °C 1010.6 hPa ONO 6.5 km/h 11.3 km/h 39% 0.0 mm
17:34 16.7 °C 2.9 °C 1010.6 hPa ONO 6.5 km/h 13.7 km/h 39.8% 0.0 mm
17:39 16.5 °C 2.8 °C 1010.6 hPa ONO 6.5 km/h 14.5 km/h 40% 0.0 mm
17:44 16.4 °C 2.9 °C 1010.6 hPa Oeste 7.7 km/h 12.9 km/h 40.6% 0.0 mm
17:49 16.3 °C 3 °C 1010.6 hPa ONO 8.4 km/h 11.3 km/h 41% 0.0 mm
17:54 16.2 °C 3 °C 1010.6 hPa ONO 6.6 km/h 13 km/h 41.4% 0.0 mm
17:59 16 °C 3.3 °C 1010.5 hPa ONO 5.8 km/h 13 km/h 42.6% 0.0 mm
18:04 15.8 °C 3.8 °C 1010.5 hPa ONO 7.6 km/h 12.9 km/h 44.8% 0.0 mm
18:09 15.7 °C 4.2 °C 1010.7 hPa ONO 8.4 km/h 11.3 km/h 46.5% 0.0 mm
18:14 15.5 °C 4.3 °C 1010.7 hPa ONO 7.4 km/h 11.3 km/h 47% 0.0 mm
18:19 15.4 °C 4.4 °C 1010.7 hPa ONO 6.9 km/h 8.4 km/h 47.8% 0.0 mm
18:24 15.3 °C 4.4 °C 1010.7 hPa ONO 5.4 km/h 8 km/h 48% 0.0 mm
18:29 15.3 °C 4.4 °C 1010.6 hPa NO 4.7 km/h 8 km/h 48.4% 0.0 mm
18:34 15.2 °C 4.5 °C 1010.6 hPa Oeste 4.1 km/h 7.4 km/h 49% 0.0 mm
18:39 15.1 °C 4.5 °C 1010.6 hPa ONO 3.9 km/h 9.3 km/h 49.4% 0.0 mm
18:44 14.9 °C 4.5 °C 1010.5 hPa ONO 4.6 km/h 9.7 km/h 50% 0.0 mm
18:49 14.8 °C 4.6 °C 1010.5 hPa Oeste 5 km/h 8 km/h 50.4% 0.0 mm
18:54 14.7 °C 4.7 °C 1010.5 hPa SSO 3.8 km/h 8 km/h 51% 0.0 mm
18:59 14.7 °C 4.7 °C 1010.4 hPa Sur 3.2 km/h 10 km/h 51% 0.0 mm
19:04 14.6 °C 4.8 °C 1010.4 hPa SSE 3.7 km/h 9.7 km/h 51.8% 0.0 mm
19:09 14.5 °C 4.7 °C 1010.4 hPa Sur 3.9 km/h 8 km/h 52% 0.0 mm
19:14 14.6 °C 4.8 °C 1010.3 hPa SSE 4.4 km/h 8 km/h 52% 0.0 mm
19:19 14.5 °C 4.8 °C 1010.3 hPa Sur 4.7 km/h 8 km/h 52% 0.0 mm
19:24 14.4 °C 4.8 °C 1010.3 hPa SSE 4.1 km/h 8 km/h 52.6% 0.0 mm
19:29 14.1 °C 4.8 °C 1010.3 hPa SE 3.9 km/h 8 km/h 53.5% 0.0 mm
19:34 13.8 °C 4.8 °C 1010.3 hPa SE 4.4 km/h 9.3 km/h 54.5% 0.0 mm
19:39 13.6 °C 4.8 °C 1010.5 hPa SE 4.7 km/h 9.7 km/h 55.3% 0.0 mm
19:44 13.4 °C 4.8 °C 1010.5 hPa SE 4.7 km/h 8 km/h 56% 0.0 mm
19:49 13.3 °C 4.7 °C 1010.5 hPa SE 4.7 km/h 8 km/h 56% 0.0 mm
19:54 13.3 °C 4.7 °C 1010.5 hPa SE 4.7 km/h 8 km/h 56% 0.0 mm
19:59 13.3 °C 4.7 °C 1010.4 hPa SE 4.7 km/h 6.4 km/h 56% 0.0 mm
20:04 13.2 °C 4.9 °C 1010.4 hPa ESE 3.4 km/h 10.3 km/h 57% 0.0 mm
20:09 13.1 °C 4.8 °C 1010.4 hPa ESE 2.9 km/h 11.3 km/h 57.2% 0.0 mm
20:14 12.7 °C 4.7 °C 1010.2 hPa Este 4.8 km/h 9.7 km/h 58.2% 0.0 mm
20:19 12.5 °C 4.7 °C 1010.2 hPa SE 5.8 km/h 10 km/h 59% 0.0 mm
20:24 12.3 °C 4.6 °C 1010.3 hPa Sur 5.8 km/h 9.7 km/h 59.4% 0.0 mm
20:29 12.3 °C 4.7 °C 1010.3 hPa Sur 5.8 km/h 9.5 km/h 59.6% 0.0 mm
20:34 12.3 °C 4.6 °C 1010.3 hPa SO 6.2 km/h 9.7 km/h 59% 0.0 mm
20:39 12.5 °C 4.7 °C 1010.3 hPa SO 6.5 km/h 9.7 km/h 59% 0.0 mm
20:44 12.6 °C 4.8 °C 1010.0 hPa SO 4.1 km/h 4.8 km/h 59% 0.0 mm
20:49 12.5 °C 4.7 °C 1010.0 hPa SSE 2.9 km/h 7.4 km/h 59% 0.0 mm
20:54 12.3 °C 4.8 °C 1010.0 hPa ESE 3.1 km/h 8 km/h 59.9% 0.0 mm
20:59 12.2 °C 4.7 °C 1009.8 hPa ESE 3.2 km/h 8 km/h 60% 0.0 mm
21:04 12.1 °C 4.8 °C 1009.8 hPa ESE 3.2 km/h 4.8 km/h 61% 0.0 mm
21:09 12.1 °C 4.8 °C 1009.8 hPa ESE 3.2 km/h 4.8 km/h 61% 0.0 mm
21:14 12 °C 4.8 °C 1009.8 hPa ESE 1.1 km/h 4.8 km/h 61.2% 0.0 mm
21:19 11.9 °C 4.8 °C 1009.8 hPa Calm   3.7 km/h 61.8% 0.0 mm
21:24 11.8 °C 4.8 °C 1009.8 hPa Calm   5.6 km/h 62% 0.0 mm
21:29 11.8 °C 4.7 °C 1009.7 hPa Calm   5.6 km/h 62% 0.0 mm
21:34 11.8 °C 4.8 °C 1009.7 hPa ESE 2 km/h 5.8 km/h 62.4% 0.0 mm
21:39 11.7 °C 4.9 °C 1009.8 hPa SO 3.2 km/h 7.4 km/h 63% 0.0 mm
21:44 11.6 °C 5 °C 1009.8 hPa Oeste 3.2 km/h 8 km/h 63.8% 0.0 mm
21:49 11.6 °C 5 °C 1009.8 hPa ONO 3.2 km/h 8.4 km/h 64% 0.0 mm
21:54 11.6 °C 5 °C 1009.8 hPa ONO 3.7 km/h 8 km/h 64% 0.0 mm
21:59 11.6 °C 5 °C 1009.8 hPa ONO 3.9 km/h 8 km/h 64% 0.0 mm
22:04 11.6 °C 5.2 °C 1009.8 hPa ONO 1.2 km/h 3.7 km/h 64.9% 0.0 mm
22:09 11.6 °C 5.2 °C 1009.8 hPa Calm   3.9 km/h 65% 0.0 mm
22:14 11.6 °C 5.2 °C 1009.6 hPa ONO 1.5 km/h 6.4 km/h 65% 0.0 mm
22:19 11.6 °C 5.2 °C 1009.6 hPa SSE 2.2 km/h 13 km/h 65% 0.0 mm
22:24 11.6 °C 5.3 °C 1009.6 hPa Sur 4.6 km/h 12.9 km/h 65.4% 0.0 mm
22:29 11.5 °C 5.3 °C 1009.6 hPa SSE 5.8 km/h 13.7 km/h 66% 0.0 mm
22:34 11.4 °C 5.3 °C 1009.6 hPa SSE 6.9 km/h 14.8 km/h 66% 0.0 mm
22:39 11.5 °C 5.4 °C 1009.6 hPa Sur 7.6 km/h 14.8 km/h 66% 0.0 mm
22:44 11.6 °C 5.3 °C 1009.3 hPa Sur 8.9 km/h 14.5 km/h 65.2% 0.0 mm
22:49 11.7 °C 5.3 °C 1009.3 hPa SSO 9.5 km/h 11.3 km/h 65% 0.0 mm
22:54 11.8 °C 5.2 °C 1009.3 hPa OSO 7.5 km/h 9.7 km/h 64.2% 0.0 mm
22:59 11.9 °C 5.3 °C 1009.1 hPa OSO 6.5 km/h 9.3 km/h 64% 0.0 mm
23:04 11.9 °C 5.2 °C 1009.1 hPa Oeste 5.5 km/h 9.7 km/h 63.8% 0.0 mm
23:09 11.9 °C 5.3 °C 1009.1 hPa Oeste 5 km/h 8 km/h 63.9% 0.0 mm
23:14 11.9 °C 5.3 °C 1008.6 hPa Oeste 1.6 km/h 6.9 km/h 64% 0.0 mm
23:19 11.9 °C 5.3 °C 1008.6 hPa Calm   8 km/h 64% 0.0 mm
23:24 11.8 °C 5.4 °C 1008.6 hPa ESE 2.5 km/h 8 km/h 64.9% 0.0 mm
23:29 11.7 °C 5.6 °C 1008.5 hPa ESE 3.9 km/h 8 km/h 66.1% 0.0 mm
23:34 11.6 °C 5.7 °C 1008.5 hPa ESE 3.2 km/h 6.4 km/h 67% 0.0 mm
23:39 11.6 °C 5.9 °C 1008.5 hPa ESE 2.9 km/h   67.9% 0.0 mm
23:44 11.6 °C 5.9 °C 1008.5 hPa ESE 1 km/h 4.7 km/h 68% 0.0 mm
23:49 11.6 °C 6 °C 1008.5 hPa Calm   6.9 km/h 68.5% 0.0 mm
23:54 11.6 °C 6.2 °C 1008.5 hPa NNO 2.2 km/h 8 km/h 69.4% 0.0 mm
23:59 11.4 °C 6 °C 1008.3 hPa NO 3.2 km/h 8 km/h 69.4% 0.0 mm
Murcia-Puente Tocinos, España
Compliments of Weather Underground - 3 mb

La estación de MeteoMurcia.com, publica sus datos en los siguientes proyectos:

Weather Underground PWS IMURCIAP2 Meteoclimatic www.awekas.at

W3Counter
Web Analytics